Latest Weather Observations for Horsham

IDV60801

Issued at 7:42 am EDT Monday 6 February 2023 (issued every 10 minutes, with the page automatically refreshed every 10 minutes)

About weather observations | Map of weather stations | Latest weather observations for VIC | Other Formats
Station Details ID: 079100 Name: HORSHAM AERODROME Lat: -36.67 Lon: 142.17 Height: 133.8 m
Data from the previous 72 hours. | See also: Recent months at Horsham
Date/Time
EDT
Temp
°C
App
Temp
°C
Dew
Point
°C
Rel
Hum
%
Delta-T
°C
Wind Press
QNH
hPa
Press
MSL
hPa
Rain since
9am
mm
Dir  Spd
km/h
Gust
km/h
Spd
kts
Gust
kts
06/07:30am 10.2 9.0 9.7 97 0.3 SSW 6 6 3 3 1020.4 1020.0 0.0
06/07:00am 9.6 8.1 9.1 97 0.2 SSW 7 9 4 5 1020.1 1019.7 0.0
06/06:30am 8.7 6.9 7.9 95 0.4 SSW 7 9 4 5 1019.8 1019.4 0.0
06/06:00am 10.0 8.2 9.4 96 0.3 SW 9 9 5 5 1019.6 1019.2 0.0
06/05:30am 10.3 8.1 9.5 95 0.4 SW 11 13 6 7 1019.1 1018.7 0.0
06/05:00am 10.5 8.7 9.6 94 0.5 SW 9 9 5 5 1018.7 1018.2 0.0
06/04:30am 9.4 9.0 8.2 92 0.6 CALM 0 0 0 0 1018.4 1017.9 0.0
06/04:00am 9.9 8.3 8.2 89 0.8 S 6 7 3 4 1018.3 1017.8 0.0
06/03:30am 10.0 8.2 9.4 96 0.3 SE 9 9 5 5 1018.3 1017.8 0.0
06/03:00am 9.4 6.9 8.0 91 0.7 S 11 13 6 7 1018.3 1017.8 0.0
06/02:30am 11.4 9.2 9.5 88 1.0 SSW 11 13 6 7 1018.4 1017.9 0.0
06/02:00am 12.6 11.0 10.3 86 1.2 SW 9 11 5 6 1018.5 1018.0 0.0
06/01:30am 13.1 11.7 10.8 86 1.2 SSW 9 11 5 6 1018.4 1017.9 0.0
06/01:00am 12.0 9.5 9.6 85 1.2 S 13 13 7 7 1018.4 1017.9 0.0
06/12:30am 12.5 10.1 10.0 85 1.3 S 13 13 7 7 1018.5 1018.0 0.0
06/12:00am 13.3 10.9 9.9 80 1.8 S 13 13 7 7 1018.4 1017.9 0.0
 
Date/Time
EDT
Temp
°C
App
Temp
°C
Dew
Point
°C
Rel
Hum
%
Delta-T
°C
Wind Press
QNH
hPa
Press
MSL
hPa
Rain since
9am
mm
Dir  Spd
km/h
Gust
km/h
Spd
kts
Gust
kts
05/11:30pm 12.8 10.2 9.4 80 1.7 S 13 15 7 8 1018.4 1017.9 0.0
05/11:00pm 14.8 12.4 10.2 74 2.4 SSW 13 15 7 8 1018.5 1018.0 0.0
05/10:30pm 16.1 13.0 10.4 69 3.0 S 17 20 9 11 1018.6 1018.1 0.0
05/10:00pm 16.7 13.2 10.3 66 3.4 S 19 22 10 12 1018.7 1018.2 0.0
05/09:30pm 17.5 14.1 10.4 63 3.8 S 19 22 10 12 1018.2 1017.7 0.0
05/09:00pm 18.4 14.7 10.0 58 4.5 S 20 22 11 12 1018.0 1017.5 0.0
05/08:30pm 19.7 15.8 9.6 52 5.4 S 20 24 11 13 1017.6 1017.1 0.0
05/08:00pm 21.3 17.0 9.5 47 6.3 SSW 22 28 12 15 1017.3 1016.8 0.0
05/07:30pm 22.5 18.6 9.6 44 7.0 SSW 20 28 11 15 1016.8 1016.3 0.0
05/07:00pm 23.2 21.3 9.2 41 7.6 S 9 24 5 13 1016.6 1016.1 0.0
05/06:30pm 23.4 20.8 9.4 41 7.6 SSW 13 20 7 11 1016.6 1016.1 0.0
05/06:00pm 23.5 20.2 9.5 41 7.6 SSW 17 24 9 13 1016.7 1016.2 0.0
05/05:30pm 22.6 19.8 8.7 41 7.4 SW 13 26 7 14 1016.7 1016.2 0.0
05/05:00pm 22.5 18.8 9.3 43 7.1 SW 19 28 10 15 1016.8 1016.3 0.0
05/04:30pm 22.4 18.6 9.2 43 7.1 SSW 19 30 10 16 1017.1 1016.6 0.0
05/04:00pm 21.9 18.6 9.4 45 6.7 S 17 32 9 17 1017.2 1016.7 0.0
05/03:30pm 22.1 18.1 8.9 43 7.1 SSW 20 30 11 16 1017.4 1016.9 0.0
05/03:00pm 21.3 17.9 9.2 46 6.5 S 17 30 9 16 1017.6 1017.1 0.0
05/02:30pm 21.8 18.7 10.3 48 6.3 S 17 28 9 15 1017.7 1017.2 0.0
05/02:00pm 20.6 16.8 8.9 47 6.2 WSW 19 30 10 16 1018.1 1017.6 0.0
05/01:30pm 20.7 17.6 9.0 47 6.2 WSW 15 22 8 12 1018.4 1017.9 0.0
05/01:00pm 20.0 15.5 8.7 48 5.9 SW 22 32 12 17 1018.5 1018.0 0.0
05/12:30pm 20.1 16.7 9.1 49 5.8 SW 17 26 9 14 1018.7 1018.2 0.0
05/12:00pm 19.3 15.4 8.6 50 5.6 SW 19 28 10 15 1018.8 1018.3 0.0
05/11:30am 19.3 17.0 8.9 51 5.5 SW 11 20 6 11 1018.8 1018.3 0.0
05/11:00am 18.3 15.7 9.4 56 4.7 SW 13 22 7 12 1018.8 1018.3 0.0
05/10:30am 18.0 16.8 10.4 61 4.1 SSW 7 13 4 7 1018.8 1018.3 0.0
05/10:00am 15.9 13.4 9.8 67 3.2 SW 13 15 7 8 1018.8 1018.3 0.0
05/09:30am 17.0 14.9 9.9 63 3.8 SSW 11 17 6 9 1018.9 1018.4 0.0
05/09:00am 15.7 14.4 11.1 74 2.5 SW 9 13 5 7 1018.8 1018.3 0.0
05/08:30am 14.6 13.4 11.7 83 1.6 SSW 9 13 5 7 1018.4 1017.9 0.0
05/08:00am 13.0 11.7 11.2 89 1.0 WSW 9 11 5 6 1018.1 1017.6 0.0
05/07:30am 11.4 9.7 10.0 91 0.7 WSW 9 11 5 6 1017.8 1017.3 0.0
05/07:00am 9.2 7.6 8.0 92 0.6 NW 6 6 3 3 1017.3 1016.8 0.0
05/06:30am 8.6 6.7 7.5 93 0.5 NW 7 7 4 4 1017.0 1016.5 0.0
05/06:00am 8.2 6.3 7.4 95 0.4 WNW 7 7 4 4 1016.6 1016.1 0.0
05/05:30am 6.6 4.3 5.6 93 0.4 NW 7 11 4 6 1016.1 1015.6 0.0
05/05:00am 7.6 6.4 6.4 92 0.6 S 2 15 1 8 1015.8 1015.3 0.0
05/04:30am 7.6 5.6 6.1 90 0.7 SSE 6 9 3 5 1015.5 1015.0 0.0
05/04:00am 9.3 6.5 7.1 86 1.0 SW 11 13 6 7 1015.3 1014.8 0.0
05/03:30am 9.4 7.4 7.3 87 1.0 SW 7 9 4 5 1015.4 1014.9 0.0
05/03:00am 10.0 7.8 7.8 86 1.1 WSW 9 11 5 6 1015.5 1015.0 0.0
05/02:30am 9.9 7.9 7.3 84 1.2 SW 7 9 4 5 1015.5 1015.0 0.0
05/02:00am 10.4 8.6 7.3 81 1.5 WSW 6 7 3 4 1015.5 1015.0 0.0
05/01:30am 11.0 8.8 7.7 80 1.6 SW 9 11 5 6 1015.6 1015.1 0.0
05/01:00am 11.2 7.8 7.5 78 1.8 SSW 15 15 8 8 1015.4 1014.9 0.0
05/12:30am 11.8 8.5 8.1 78 1.8 SSW 15 15 8 8 1015.2 1014.7 0.0
05/12:00am 12.8 9.2 8.5 75 2.2 SSW 17 19 9 10 1015.0 1014.5 0.0
 
Date/Time
EDT
Temp
°C
App
Temp
°C
Dew
Point
°C
Rel
Hum
%
Delta-T
°C
Wind Press
QNH
hPa
Press
MSL
hPa
Rain since
9am
mm
Dir  Spd
km/h
Gust
km/h
Spd
kts
Gust
kts
04/11:30pm 13.7 10.1 8.5 71 2.6 SSW 17 20 9 11 1015.1 1014.6 0.0
04/11:00pm 14.1 10.9 8.5 69 2.8 SSW 15 19 8 10 1015.1 1014.6 0.0
04/10:30pm 14.9 11.4 8.6 66 3.2 S 17 20 9 11 1014.8 1014.3 0.0
04/10:00pm 15.5 12.2 9.4 67 3.2 SSW 17 20 9 11 1014.7 1014.2 0.0
04/09:30pm 16.5 12.8 9.4 63 3.7 SSW 19 22 10 12 1014.2 1013.7 0.0
04/09:00pm 17.4 13.5 9.3 59 4.3 SSW 20 26 11 14 1013.8 1013.3 0.0
04/08:30pm 18.8 14.0 8.7 52 5.3 SW 24 32 13 17 1013.2 1012.8 0.0
04/08:00pm 19.9 15.2 9.2 50 5.7 SSW 24 32 13 17 1012.6 1012.2 0.0
04/07:30pm 20.8 15.3 9.1 47 6.2 SSW 28 35 15 19 1012.3 1011.8 0.0
04/07:00pm 21.5 16.2 9.7 47 6.4 SW 28 41 15 22 1011.9 1011.4 0.0
04/06:30pm 22.0 16.5 9.2 44 6.9 SW 28 35 15 19 1011.5 1011.0 0.0
04/06:00pm 23.6 18.1 7.7 36 8.4 SW 26 37 14 20 1011.1 1010.6 0.0
04/05:30pm 22.3 16.1 7.7 39 7.7 SW 30 43 16 23 1010.9 1010.4 0.0
04/05:00pm 22.1 16.5 8.6 42 7.2 SSW 28 43 15 23 1010.8 1010.3 0.0
04/04:30pm 21.9 16.7 8.8 43 7.0 SSW 26 37 14 20 1010.7 1010.2 0.0
04/04:00pm 23.9 18.7 10.2 42 7.6 SW 28 41 15 22 1010.7 1010.2 0.0
04/03:30pm 22.7 18.1 9.5 43 7.2 WSW 24 35 13 19 1010.9 1010.4 0.0
04/03:00pm 20.8 15.3 9.1 47 6.2 SW 28 39 15 21 1011.1 1010.6 0.0
04/02:30pm 21.5 16.6 11.2 52 5.7 WSW 28 39 15 21 1011.0 1010.5 0.0
04/02:00pm 20.2 14.9 10.0 52 5.5 SW 28 35 15 19 1010.8 1010.3 0.0
04/01:30pm 20.1 15.5 9.7 51 5.6 SW 24 35 13 19 1011.1 1010.6 0.0
04/01:00pm 18.7 13.5 10.3 58 4.5 SW 28 35 15 19 1011.1 1010.6 0.0
04/12:39pm 18.1 12.8 9.7 58 4.5 SW 28 46 15 25 1011.0 1010.5 0.0
04/12:30pm 18.6 14.9 10.2 58 4.5 WSW 20 46 11 25 1010.9 1010.4 0.0
04/12:00pm 18.0 12.7 9.9 59 4.3 WSW 28 37 15 20 1011.1 1010.6 0.0
04/11:30am 18.2 13.7 11.3 64 3.8 SW 26 33 14 18 1011.1 1010.6 0.0
04/11:00am 17.6 13.0 10.9 65 3.6 SW 26 37 14 20 1010.9 1010.4 0.0
04/10:30am 17.0 11.0 10.8 67 3.3 SW 33 43 18 23 1010.6 1010.1 0.0
04/10:00am 16.3 11.0 11.2 72 2.8 WSW 30 41 16 22 1010.2 1009.7 0.0
04/09:40am 15.5 10.3 11.5 77 2.2 WSW 30 39 16 21 1009.9 1009.4 0.0
04/09:30am 14.8 9.8 11.0 78 2.0 WSW 28 39 15 21 1009.8 1009.3 0.0
04/09:21am 14.6 9.6 11.0 79 1.9 WSW 28 39 15 21 1009.7 1009.2 0.0
04/09:03am 14.2 9.3 11.2 82 1.6 WSW 28 46 15 25 1009.3 1008.8 0.0
04/09:00am 14.3 9.1 11.5 83 1.5 WSW 30 46 16 25 1009.3 1008.8 3.4
04/08:30am 13.2 8.2 11.1 87 1.1 W 28 39 15 21 1008.8 1008.3 3.4
04/08:00am 12.1 8.6 10.3 89 0.9 W 19 22 10 12 1008.5 1008.0 3.4
04/07:30am 11.2 7.4 9.8 91 0.7 W 20 26 11 14 1008.0 1007.5 3.4
04/07:00am 10.9 7.0 9.5 91 0.7 W 20 26 11 14 1007.5 1007.0 3.4
04/06:30am 10.5 6.5 8.9 90 0.8 W 20 26 11 14 1007.0 1006.5 3.4
04/06:00am 10.2 5.7 8.6 90 0.8 W 22 28 12 15 1006.3 1005.8 3.4
04/05:30am 10.2 6.1 8.5 89 0.8 W 20 24 11 13 1006.1 1005.6 3.4
04/05:00am 10.4 6.3 8.7 89 0.8 W 20 28 11 15 1005.8 1005.2 3.4
04/04:30am 10.2 6.1 8.5 89 0.8 W 20 26 11 14 1005.8 1005.2 3.4
04/04:00am 10.1 5.9 8.4 89 0.8 W 20 28 11 15 1005.3 1004.8 3.4
04/03:30am 9.5 5.2 7.9 90 0.8 W 20 24 11 13 1005.3 1004.8 3.4
04/03:00am 9.7 5.4 8.0 89 0.8 W 20 26 11 14 1005.4 1004.9 3.4
04/02:30am 10.0 5.8 8.3 89 0.8 W 20 28 11 15 1005.5 1005.0 3.4
04/02:00am 9.8 5.8 8.1 89 0.8 W 19 24 10 13 1005.6 1005.1 3.4
04/01:30am 10.0 6.3 8.1 88 0.9 W 17 20 9 11 1005.8 1005.2 3.4
04/01:00am 10.2 7.0 8.6 90 0.8 W 15 17 8 9 1005.8 1005.2 3.4
04/12:30am 10.7 8.0 9.0 89 0.8 WSW 13 17 7 9 1005.6 1005.1 3.4
04/12:00am 11.2 8.2 9.3 88 1.0 WSW 15 17 8 9 1005.3 1004.8 3.4
 
Date/Time
EDT
Temp
°C
App
Temp
°C
Dew
Point
°C
Rel
Hum
%
Delta-T
°C
Wind Press
QNH
hPa
Press
MSL
hPa
Rain since
9am
mm
Dir  Spd
km/h
Gust
km/h
Spd
kts
Gust
kts
03/11:30pm 11.1 7.3 9.0 87 1.1 WSW 19 24 10 13 1005.3 1004.8 3.4
03/11:00pm 10.7 7.1 8.5 86 1.1 WSW 17 24 9 13 1005.1 1004.6 3.4
03/10:30pm 10.6 7.3 8.0 84 1.3 WSW 15 20 8 11 1004.9 1004.4 3.4
03/10:00pm 10.4 7.5 8.3 87 1.0 W 13 17 7 9 1004.4 1003.9 3.4
03/09:30pm 10.6 7.2 7.8 83 1.4 WSW 15 19 8 10 1003.9 1003.4 3.4
03/09:00pm 11.4 7.2 8.1 80 1.6 WSW 20 28 11 15 1003.3 1002.8 3.4
03/08:30pm 11.6 7.6 8.1 79 1.7 WSW 19 24 10 13 1002.7 1002.2 3.4
03/08:00pm 12.4 8.2 8.3 76 2.1 WSW 20 30 11 16 1002.0 1001.5 3.4
03/07:30pm 12.2 7.7 8.5 78 1.8 WSW 22 30 12 16 1001.6 1001.1 3.4
03/07:00pm 12.5 6.8 8.4 76 2.1 SW 28 35 15 19 1001.0 1000.5 3.4
03/06:30pm 15.3 7.9 6.6 56 4.3 SW 35 46 19 25 999.9 999.4 3.2
03/06:00pm 15.3 7.2 7.1 58 4.1 SW 39 52 21 28 999.6 999.1 3.2
03/05:46pm 15.4 8.9 6.7 56 4.3 WSW 30 50 16 27 999.3 998.7 3.2
03/05:30pm 13.9 9.4 8.5 70 2.7 WSW 22 32 12 17 999.2 998.6 3.2
03/05:00pm 11.6 4.5 7.9 78 1.8 S 35 44 19 24 999.3 998.7 3.0
03/04:30pm 15.5 10.7 8.7 64 3.5 W 24 30 13 16 998.3 997.7 2.8
03/04:00pm 12.2 8.3 9.6 84 1.3 WSW 20 28 11 15 998.4 997.8 2.8
03/03:47pm 11.6 4.7 8.8 83 1.4 WSW 35 50 19 27 998.3 997.7 2.8
03/03:37pm 14.1 7.9 6.0 58 3.9 SSW 28 52 15 28 998.0 997.4 2.8
03/03:35pm 14.9 9.6 8.4 65 3.3 SSW 26 35 14 19 997.7 997.2 2.8
03/03:30pm 15.5 10.7 10.3 71 2.8 SSW 26 35 14 19 997.7 997.2 2.8
03/03:08pm 12.8 8.5 9.4 80 1.7 SSW 22 33 12 18 997.7 997.2 2.8
03/03:00pm 12.5 6.4 9.7 83 1.4 SSW 32 48 17 26 997.7 997.2 2.8
03/02:55pm 11.5 5.1 9.2 86 1.2 SW 33 48 18 26 997.8 997.3 2.6
03/02:51pm 11.8 5.3 8.1 78 1.8 WSW 32 48 17 26 998.0 997.4 2.6
03/02:30pm 16.1 11.4 7.8 58 4.2 W 22 30 12 16 997.1 996.6 1.2
03/02:00pm 14.7 8.6 6.5 58 4.0 SW 28 41 15 22 997.3 996.8 1.2
03/01:30pm 12.1 6.3 9.3 83 1.4 SW 30 41 16 22 997.5 997.0 1.2
03/01:12pm 13.7 7.5 6.1 60 3.6 SW 28 54 15 29 997.3 996.8 0.0
03/01:00pm 14.8 8.0 5.3 53 4.6 SSW 30 39 16 21 996.7 996.2 0.0
03/12:30pm 15.1 8.2 6.4 56 4.2 WSW 32 43 17 23 996.6 996.1 0.0
03/12:00pm 13.3 7.7 8.6 73 2.4 WSW 28 39 15 21 996.6 996.1 0.0
03/11:30am 13.5 6.2 7.3 66 3.0 W 35 50 19 27 996.7 996.2 0.0
03/11:09am 13.8 6.1 7.1 64 3.3 W 37 56 20 30 996.6 996.1 0.0
03/11:00am 13.8 5.6 6.4 61 3.6 W 39 56 21 30 996.7 996.2 0.0
03/10:30am 13.3 6.9 8.4 72 2.5 W 32 43 17 23 996.5 996.0 0.0
03/10:00am 11.4 4.5 7.3 76 2.0 W 33 46 18 25 996.5 996.0 0.0
03/09:30am 11.3 4.8 8.0 80 1.6 W 32 41 17 22 996.3 995.8 0.0
03/09:00am 10.8 4.5 7.5 80 1.6 W 30 39 16 21 996.3 995.8 2.8
03/08:30am 9.7 3.8 7.6 87 1.0 WNW 28 33 15 18 996.0 995.5 2.8
03/08:00am 9.0 3.4 7.1 88 0.9 WNW 26 35 14 19 995.9 995.4 2.8

Other formats

Comma delimited format used in spreadsheet applications
http://www.bom.gov.au/fwo/IDV60801/IDV60801.95839.axf

JavaScript Object Notation format (JSON) in row-major order
http://www.bom.gov.au/fwo/IDV60801/IDV60801.95839.json

Data quality

Most of these data are generated automatically and are frequently updated. Quality checks on data are not normally performed. It is possible for incorrect values to appear. Refer to information at About Latest Weather Observations and please check the disclaimer before using these data.